Toeterville, Iowa
Current Conditions -  °F | °C
As of 8:16 AM on Saturday 20 Dec 2014 (Local Time) from KAUM Reporting Station
Moderate Fog Moderate Fog  
Wind Chill: 23°   Ceiling: 200
Heat Index: 28°   Visibility: 0.5mi
Dew Point: 27°   Wind: 5mph
Humidity: 93%   Direction: 160°SSE
Pressure: 30.16"   Gusts: NA
Location:  43.44°N, 92.89°W
Report Text: KAUM 201416Z AUTO 16004KT 1/2SM FZFG OVC002 M02/M03 A3016 RMK AO2
Loading
Personal Weather Stations






























Interactive Weather Map New forecast layout! Learn more

10-Day Weather Forecast

Advertisements
Track Severe Weather on mobile